KIKK

Greater Kankakee Airport

Kankakee, Illinois, USA
METAR KIKK 271135Z AUTO 13003KT 10SM CLR 21/18 A2987 RMK AO2 T02050179
Observed Flight Rules
May-27 @ 11:35 UTC (31 minutes ago) Visual Flight Rules
Wind Visibility Clouds
130° at 3 knots 10 miles
  • Clear skies
Temperatures Readings
Current 21°C / 70°F
Dewpoint 18°C / 64°F
Humidity 83%
Altimeter 29.87" Hg
Pressure 1012 hPa
Elevation 192
METAR KIKK 271135Z AUTO 13003KT 10SM CLR 21/18 A2987 RMK AO2 T02050179
Observed Flight Rules
May-27 @ 11:35 UTC
(31 minutes ago)
VFR
Wind Visibility
130° at 3 knots 10 miles
Clouds
  • Clear skies
Temperature Dewpoint
21°C / 70°F 18°C / 64°F
Humidity Altimeter Pressure
83% 29.87" Hg 1012 hPa